Time;durP1;ratioP1;P1;durP2;ratioP2;P2;SDS_P1;SDS_P2;PMS_P1;PMS_P2;Temp;Humidity;BMP_temperature;BMP_pressure;BME280_temperature;BME280_humidity;BME280_pressure;Samples;Min_cycle;Max_cycle;Signal;HPM_P1;HPM_P2
2022/11/27 00:00:36;;;;;;;17.08;9.55;;;;;;;;;;6154717;23;20002;-76
2022/11/27 00:03:02;;;;;;;18.27;8.88;;;;;;;;;;6154116;23;20335;-77
2022/11/27 00:05:28;;;;;;;16.25;9.00;;;;;;;;;;6154056;23;20012;-77
2022/11/27 00:07:54;;;;;;;17.70;7.80;;;;;;;;;;6154144;23;19997;-77
2022/11/27 00:10:20;;;;;;;18.30;7.55;;;;;;;;;;6154500;23;20008;-76
2022/11/27 00:12:46;;;;;;;14.27;7.38;;;;;;;;;;6155626;23;20001;-76
2022/11/27 00:15:12;;;;;;;15.90;8.40;;;;;;;;;;6158737;23;20008;-77
2022/11/27 00:17:38;;;;;;;21.10;8.13;;;;;;;;;;6155830;23;20102;-78
2022/11/27 00:20:05;;;;;;;18.25;8.23;;;;;;;;;;6155711;23;20426;-77
2022/11/27 00:22:31;;;;;;;19.30;8.85;;;;;;;;;;6155622;23;20029;-76
2022/11/27 00:24:57;;;;;;;22.80;8.57;;;;;;;;;;6155492;23;20342;-78
2022/11/27 00:27:23;;;;;;;21.42;7.90;;;;;;;;;;6155608;23;19998;-77
2022/11/27 00:29:49;;;;;;;15.40;7.13;;;;;;;;;;6156055;23;20006;-73
2022/11/27 00:32:15;;;;;;;20.05;7.38;;;;;;;;;;6155548;23;20013;-78
2022/11/27 00:34:41;;;;;;;13.38;7.30;;;;;;;;;;6129686;23;20330;-77
2022/11/27 00:37:07;;;;;;;18.27;8.18;;;;;;;;;;6155664;23;20008;-76
2022/11/27 00:39:34;;;;;;;22.05;7.63;;;;;;;;;;6155560;23;20006;-76
2022/11/27 00:41:59;;;;;;;15.02;7.75;;;;;;;;;;6155497;23;20005;-78
2022/11/27 00:44:25;;;;;;;12.20;5.82;;;;;;;;;;6129318;23;20014;-77
2022/11/27 00:46:51;;;;;;;16.40;6.65;;;;;;;;;;6155387;23;20338;-76
2022/11/27 00:49:17;;;;;;;19.00;6.78;;;;;;;;;;6154955;23;20006;-76
2022/11/27 00:51:43;;;;;;;13.02;6.22;;;;;;;;;;6154265;23;20311;-76
2022/11/27 00:54:09;;;;;;;15.95;7.35;;;;;;;;;;6128909;23;20080;-72
2022/11/27 00:56:37;;;;;;;13.90;5.40;;;;;;;;;;6155415;23;20350;-77
2022/11/27 00:59:03;;;;;;;26.95;6.95;;;;;;;;;;6155436;23;19998;-76
2022/11/27 01:01:31;;;;;;;11.95;6.55;;;;;;;;;;6156002;23;20005;-75
2022/11/27 01:03:57;;;;;;;16.73;6.65;;;;;;;;;;6155371;23;20028;-76
2022/11/27 01:06:24;;;;;;;15.05;6.55;;;;;;;;;;6131060;23;20088;-76
2022/11/27 01:08:50;;;;;;;13.75;6.10;;;;;;;;;;6155418;23;20005;-74
2022/11/27 01:11:20;;;;;;;16.80;6.35;;;;;;;;;;6129095;23;20096;-76
2022/11/27 01:13:46;;;;;;;12.80;6.43;;;;;;;;;;6155293;23;20527;-76
2022/11/27 01:16:14;;;;;;;13.65;6.32;;;;;;;;;;6154517;23;20267;-78
2022/11/27 01:18:41;;;;;;;12.70;5.88;;;;;;;;;;6152612;23;20081;-76
2022/11/27 01:21:07;;;;;;;11.57;6.40;;;;;;;;;;6152846;23;20006;-74
2022/11/27 01:23:34;;;;;;;15.23;6.65;;;;;;;;;;6152879;23;20012;-76
2022/11/27 01:26:01;;;;;;;14.35;6.38;;;;;;;;;;6152992;23;20005;-76
2022/11/27 01:28:27;;;;;;;17.63;6.70;;;;;;;;;;6153190;23;20052;-75
2022/11/27 01:30:53;;;;;;;20.52;6.90;;;;;;;;;;6153701;23;20339;-75
2022/11/27 01:33:19;;;;;;;14.95;6.95;;;;;;;;;;6154892;23;20617;-74
2022/11/27 01:35:59;;;;;;;14.63;7.25;;;;;;;;;;6129215;23;20339;-77
2022/11/27 01:38:25;;;;;;;17.17;7.70;;;;;;;;;;6128609;23;20013;-76
2022/11/27 01:41:02;;;;;;;17.25;8.02;;;;;;;;;;6154726;23;20084;-74
2022/11/27 01:43:38;;;;;;;12.82;7.30;;;;;;;;;;6154913;23;20005;-77
2022/11/27 01:46:05;;;;;;;17.83;7.88;;;;;;;;;;6155158;23;20071;-76
2022/11/27 01:48:31;;;;;;;20.85;9.27;;;;;;;;;;6154564;23;20001;-76
2022/11/27 01:50:57;;;;;;;22.98;9.48;;;;;;;;;;6154994;23;19997;-75
2022/11/27 01:53:23;;;;;;;24.63;10.85;;;;;;;;;;6128614;23;20467;-75
2022/11/27 01:55:51;;;;;;;16.83;8.63;;;;;;;;;;6155082;23;20021;-74
2022/11/27 01:58:19;;;;;;;23.45;9.88;;;;;;;;;;6154788;23;20320;-75
2022/11/27 02:00:45;;;;;;;19.65;8.27;;;;;;;;;;6128892;23;20001;-74
2022/11/27 02:03:11;;;;;;;21.30;9.35;;;;;;;;;;6155277;23;20008;-77
2022/11/27 02:05:37;;;;;;;16.15;9.07;;;;;;;;;;6129750;23;20037;-74
2022/11/27 02:08:06;;;;;;;19.90;8.82;;;;;;;;;;6154395;23;20002;-75
2022/11/27 02:10:52;;;;;;;18.27;8.57;;;;;;;;;;6128525;23;20010;-74
2022/11/27 02:13:38;;;;;;;21.48;9.50;;;;;;;;;;6154085;23;20002;-76
2022/11/27 02:16:07;;;;;;;15.45;7.68;;;;;;;;;;6175017;23;20054;-74
2022/11/27 02:18:39;;;;;;;24.65;9.70;;;;;;;;;;6152516;23;19985;-77
2022/11/27 02:21:24;;;;;;;15.45;8.85;;;;;;;;;;6155216;23;20013;-78
2022/11/27 02:23:56;;;;;;;24.98;10.02;;;;;;;;;;6166205;23;20437;-75
2022/11/27 02:26:37;;;;;;;20.77;10.27;;;;;;;;;;6153847;23;20009;-77
2022/11/27 02:29:03;;;;;;;;;;;;;;;;;;6128611;23;20033;-76
2022/11/27 02:31:41;;;;;;;14.02;8.98;;;;;;;;;;6154571;23;19908;-74
2022/11/27 02:34:18;;;;;;;18.80;8.93;;;;;;;;;;6154448;23;20001;-77
2022/11/27 02:36:48;;;;;;;20.58;10.07;;;;;;;;;;6128191;23;20001;-77
2022/11/27 02:39:16;;;;;;;22.35;10.65;;;;;;;;;;6154100;23;20346;-77
2022/11/27 02:41:52;;;;;;;23.85;10.10;;;;;;;;;;6128077;23;20010;-77
2022/11/27 02:44:18;;;;;;;19.80;9.88;;;;;;;;;;6154313;23;20072;-77
2022/11/27 02:46:46;;;;;;;19.27;10.02;;;;;;;;;;6154434;23;20005;-73
2022/11/27 02:49:13;;;;;;;20.20;9.57;;;;;;;;;;6153855;23;20001;-77
2022/11/27 02:51:44;;;;;;;15.07;9.20;;;;;;;;;;6154590;23;19998;-77
2022/11/27 02:54:11;;;;;;;;;;;;;;;;;;6129176;23;20279;-77
2022/11/27 02:56:38;;;;;;;23.90;8.80;;;;;;;;;;6154368;23;19939;-78
2022/11/27 02:59:07;;;;;;;18.52;9.07;;;;;;;;;;6153870;23;20338;-76
2022/11/27 03:01:34;;;;;;;20.02;9.93;;;;;;;;;;6154753;23;20009;-74
2022/11/27 03:04:01;;;;;;;24.05;10.25;;;;;;;;;;6154625;23;20366;-76
2022/11/27 03:06:33;;;;;;;22.77;9.73;;;;;;;;;;6154446;23;20434;-77
2022/11/27 03:09:10;;;;;;;21.88;10.57;;;;;;;;;;6153713;23;20076;-77
2022/11/27 03:11:36;;;;;;;24.52;10.48;;;;;;;;;;6154096;23;20013;-77
2022/11/27 03:14:05;;;;;;;23.92;11.43;;;;;;;;;;6154236;23;20434;-76
2022/11/27 03:17:06;;;;;;;22.73;10.57;;;;;;;;;;6154240;23;19998;-77
2022/11/27 03:19:32;;;;;;;;;;;;;;;;;;6093125;23;20010;-77
2022/11/27 03:21:59;;;;;;;21.40;10.43;;;;;;;;;;6141605;23;19948;-73
2022/11/27 03:24:27;;;;;;;19.20;10.63;;;;;;;;;;6127776;23;20009;-77
2022/11/27 03:26:53;;;;;;;25.27;11.63;;;;;;;;;;6153950;23;20009;-77
2022/11/27 03:29:30;;;;;;;17.92;10.27;;;;;;;;;;6153397;23;20033;-74
2022/11/27 03:31:57;;;;;;;26.33;11.38;;;;;;;;;;6153996;23;20072;-75
2022/11/27 03:34:24;;;;;;;24.92;12.05;;;;;;;;;;6154384;23;20001;-77
2022/11/27 03:36:50;;;;;;;22.27;11.15;;;;;;;;;;6154113;23;20434;-78
2022/11/27 03:39:16;;;;;;;25.02;10.38;;;;;;;;;;6154330;23;20009;-77
2022/11/27 03:41:47;;;;;;;19.92;11.35;;;;;;;;;;6154607;23;20006;-76
2022/11/27 03:44:28;;;;;;;19.80;10.00;;;;;;;;;;6154226;23;20012;-77
2022/11/27 03:47:03;;;;;;;22.83;12.35;;;;;;;;;;6128518;23;20005;-77
2022/11/27 03:49:40;;;;;;;19.80;11.13;;;;;;;;;;6155595;23;20006;-77
2022/11/27 03:52:15;;;;;;;20.23;10.60;;;;;;;;;;6156027;23;20008;-76
2022/11/27 03:54:54;;;;;;;19.50;11.02;;;;;;;;;;6154770;23;20009;-75
2022/11/27 03:57:22;;;;;;;23.40;10.52;;;;;;;;;;6154519;23;20002;-76
2022/11/27 03:59:50;;;;;;;24.20;11.32;;;;;;;;;;6155581;23;20012;-75
2022/11/27 04:02:16;;;;;;;21.48;10.27;;;;;;;;;;6129590;23;20445;-77
2022/11/27 04:04:42;;;;;;;18.50;10.68;;;;;;;;;;6155180;23;20012;-76
2022/11/27 04:07:15;;;;;;;19.58;10.48;;;;;;;;;;6154396;23;20005;-76
2022/11/27 04:09:41;;;;;;;27.95;11.50;;;;;;;;;;6155219;23;20012;-76
2022/11/27 04:12:07;;;;;;;19.00;10.80;;;;;;;;;;6155655;23;20072;-76
2022/11/27 04:14:33;;;;;;;24.92;11.85;;;;;;;;;;6155277;23;20044;-77
2022/11/27 04:16:59;;;;;;;25.00;10.57;;;;;;;;;;6154871;23;20006;-75
2022/11/27 04:19:25;;;;;;;23.58;11.20;;;;;;;;;;6155036;23;20002;-77
2022/11/27 04:21:51;;;;;;;29.73;11.05;;;;;;;;;;6155483;23;20382;-76
2022/11/27 04:24:17;;;;;;;25.60;11.38;;;;;;;;;;6153509;23;20005;-78
2022/11/27 04:26:43;;;;;;;21.73;11.77;;;;;;;;;;6129044;23;20140;-76
2022/11/27 04:29:09;;;;;;;21.15;10.63;;;;;;;;;;6153266;23;20322;-75
2022/11/27 04:31:35;;;;;;;19.95;10.25;;;;;;;;;;6155065;23;20434;-75
2022/11/27 04:34:01;;;;;;;26.77;10.77;;;;;;;;;;6128837;23;20012;-78
2022/11/27 04:36:27;;;;;;;21.73;11.32;;;;;;;;;;6129225;23;20001;-77
2022/11/27 04:38:52;;;;;;;26.05;11.13;;;;;;;;;;6127993;23;20450;-75
2022/11/27 04:41:19;;;;;;;28.50;12.48;;;;;;;;;;6155237;23;19998;-77
2022/11/27 04:43:45;;;;;;;22.70;12.15;;;;;;;;;;6155135;23;20084;-76
2022/11/27 04:46:11;;;;;;;28.55;12.15;;;;;;;;;;6155473;23;20001;-77
2022/11/27 04:48:36;;;;;;;20.40;11.52;;;;;;;;;;6154165;23;20409;-77
2022/11/27 04:51:02;;;;;;;28.33;12.95;;;;;;;;;;6153563;23;20081;-77
2022/11/27 04:53:28;;;;;;;24.75;11.90;;;;;;;;;;6155244;23;20008;-77
2022/11/27 04:55:54;;;;;;;21.90;11.60;;;;;;;;;;6155796;23;20370;-77
2022/11/27 04:58:21;;;;;;;23.00;11.65;;;;;;;;;;6154732;23;20002;-77
2022/11/27 05:00:47;;;;;;;30.63;13.00;;;;;;;;;;6155155;23;20064;-74
2022/11/27 05:03:13;;;;;;;24.17;12.23;;;;;;;;;;6155290;23;20453;-77
2022/11/27 05:05:39;;;;;;;18.92;11.05;;;;;;;;;;6155017;23;20013;-76
2022/11/27 05:08:05;;;;;;;21.17;11.52;;;;;;;;;;6154941;23;19993;-76
2022/11/27 05:10:31;;;;;;;24.50;10.75;;;;;;;;;;6157254;23;20009;-77
2022/11/27 05:12:57;;;;;;;24.02;11.23;;;;;;;;;;6155499;23;20052;-77
2022/11/27 05:15:23;;;;;;;20.30;10.65;;;;;;;;;;6157403;23;20002;-77
2022/11/27 05:17:49;;;;;;;20.33;10.45;;;;;;;;;;6134693;23;20442;-78
2022/11/27 05:20:15;;;;;;;20.95;11.05;;;;;;;;;;6173159;23;20001;-75
2022/11/27 05:22:41;;;;;;;23.67;10.13;;;;;;;;;;6171439;23;20001;-78
2022/11/27 05:25:07;;;;;;;22.35;11.95;;;;;;;;;;6170958;23;20006;-74
2022/11/27 05:27:33;;;;;;;19.73;11.73;;;;;;;;;;6169403;23;20001;-77
2022/11/27 05:29:59;;;;;;;24.27;12.55;;;;;;;;;;6136733;23;20009;-77
2022/11/27 05:32:25;;;;;;;25.58;12.60;;;;;;;;;;6154614;23;20029;-74
2022/11/27 05:34:51;;;;;;;21.75;11.80;;;;;;;;;;6153638;23;19997;-78
2022/11/27 05:37:17;;;;;;;26.80;12.00;;;;;;;;;;6154269;23;20032;-75
2022/11/27 05:39:42;;;;;;;26.80;11.68;;;;;;;;;;6155802;23;20053;-77
2022/11/27 05:42:08;;;;;;;23.52;12.20;;;;;;;;;;6155715;23;20064;-77
2022/11/27 05:44:34;;;;;;;25.05;12.30;;;;;;;;;;6129046;23;20005;-78
2022/11/27 05:47:00;;;;;;;26.42;13.20;;;;;;;;;;6154992;23;20001;-75
2022/11/27 05:49:26;;;;;;;22.77;12.98;;;;;;;;;;6128817;23;20446;-77
2022/11/27 05:51:53;;;;;;;26.20;13.15;;;;;;;;;;6155567;23;20012;-77
2022/11/27 05:54:19;;;;;;;27.92;13.63;;;;;;;;;;6155363;23;20002;-75
2022/11/27 05:56:45;;;;;;;20.88;12.40;;;;;;;;;;6154949;23;20001;-76
2022/11/27 05:59:11;;;;;;;22.02;12.48;;;;;;;;;;6155218;23;20509;-77
2022/11/27 06:01:37;;;;;;;27.88;13.27;;;;;;;;;;6154805;23;20001;-75
2022/11/27 06:04:03;;;;;;;30.13;12.25;;;;;;;;;;6154670;23;20013;-77
2022/11/27 06:06:29;;;;;;;24.75;11.15;;;;;;;;;;6154936;23;20029;-77
2022/11/27 06:08:55;;;;;;;20.92;11.05;;;;;;;;;;6154568;23;20037;-74
2022/11/27 06:11:21;;;;;;;19.77;11.63;;;;;;;;;;6129005;23;20434;-77
2022/11/27 06:13:56;;;;;;;19.13;9.45;;;;;;;;;;6129515;23;19998;-76
2022/11/27 06:16:23;;;;;;;19.23;10.10;;;;;;;;;;6128246;23;20002;-71
2022/11/27 06:18:50;;;;;;;22.65;9.20;;;;;;;;;;6154073;23;20040;-72
2022/11/27 06:21:16;;;;;;;18.23;8.82;;;;;;;;;;6154542;23;20006;-72
2022/11/27 06:23:43;;;;;;;18.42;9.20;;;;;;;;;;6154561;23;20334;-76
2022/11/27 06:26:19;;;;;;;17.52;9.60;;;;;;;;;;6128607;23;20434;-75
2022/11/27 06:28:46;;;;;;;15.65;9.02;;;;;;;;;;6154004;23;20002;-75
2022/11/27 06:31:17;;;;;;;17.05;9.48;;;;;;;;;;6154903;23;20001;-77
2022/11/27 06:33:43;;;;;;;20.25;10.38;;;;;;;;;;6128487;23;20008;-77
2022/11/27 06:36:10;;;;;;;24.13;10.60;;;;;;;;;;6154427;23;20002;-76
2022/11/27 06:38:37;;;;;;;20.17;9.85;;;;;;;;;;6154559;23;20029;-76
2022/11/27 06:41:10;;;;;;;16.25;10.32;;;;;;;;;;6154569;23;20025;-78
2022/11/27 06:43:36;;;;;;;21.60;10.63;;;;;;;;;;6154519;23;20010;-74
2022/11/27 06:46:05;;;;;;;22.70;10.63;;;;;;;;;;6154199;23;20048;-77
2022/11/27 06:48:31;;;;;;;25.70;10.98;;;;;;;;;;6127601;23;20431;-76
2022/11/27 06:51:01;;;;;;;18.60;10.60;;;;;;;;;;6154436;23;20012;-77
2022/11/27 06:53:28;;;;;;;20.65;10.32;;;;;;;;;;6154251;23;19994;-76
2022/11/27 06:55:54;;;;;;;20.15;9.43;;;;;;;;;;6154087;23;19997;-77
2022/11/27 06:58:20;;;;;;;21.25;11.05;;;;;;;;;;6154152;23;20017;-74
2022/11/27 07:00:46;;;;;;;19.83;10.00;;;;;;;;;;6128222;23;20136;-77
2022/11/27 07:03:12;;;;;;;28.70;12.63;;;;;;;;;;6154343;23;20448;-77
2022/11/27 07:05:38;;;;;;;22.67;11.55;;;;;;;;;;6154190;23;20020;-77
2022/11/27 07:08:04;;;;;;;17.80;10.68;;;;;;;;;;6154091;23;20350;-77
2022/11/27 07:10:32;;;;;;;18.83;9.85;;;;;;;;;;6154265;23;20019;-77
2022/11/27 07:12:58;;;;;;;18.83;9.63;;;;;;;;;;6154508;23;20032;-77
2022/11/27 07:15:24;;;;;;;20.55;8.98;;;;;;;;;;6128530;23;20006;-76
2022/11/27 07:17:50;;;;;;;16.33;8.73;;;;;;;;;;6155459;23;19998;-78
2022/11/27 07:20:16;;;;;;;19.17;8.93;;;;;;;;;;6173700;23;20016;-77
2022/11/27 07:22:42;;;;;;;15.85;9.40;;;;;;;;;;6179786;23;20004;-73
2022/11/27 07:25:08;;;;;;;19.83;10.63;;;;;;;;;;6179199;23;19986;-79
2022/11/27 07:27:34;;;;;;;17.67;10.13;;;;;;;;;;6169854;23;20006;-74
2022/11/27 07:30:00;;;;;;;16.98;11.10;;;;;;;;;;6127801;23;20171;-76
2022/11/27 07:32:26;;;;;;;19.20;9.82;;;;;;;;;;6153955;23;20509;-77
2022/11/27 07:34:52;;;;;;;18.75;9.15;;;;;;;;;;6153779;23;20076;-77
2022/11/27 07:37:18;;;;;;;11.93;8.43;;;;;;;;;;6153927;23;20068;-77
2022/11/27 07:39:44;;;;;;;14.45;7.90;;;;;;;;;;6128326;23;20017;-76
2022/11/27 07:42:10;;;;;;;11.23;7.20;;;;;;;;;;6127869;23;20093;-77
2022/11/27 07:44:36;;;;;;;14.00;7.38;;;;;;;;;;6128346;23;20005;-76
2022/11/27 07:47:02;;;;;;;11.93;6.93;;;;;;;;;;6128218;23;20013;-77
2022/11/27 07:49:28;;;;;;;9.60;6.18;;;;;;;;;;6153453;23;20504;-73
2022/11/27 07:51:54;;;;;;;10.95;5.72;;;;;;;;;;6154029;23;19997;-77
2022/11/27 07:54:20;;;;;;;14.40;6.10;;;;;;;;;;6153286;23;19998;-74
2022/11/27 07:56:46;;;;;;;10.43;5.38;;;;;;;;;;6127175;23;20006;-76
2022/11/27 07:59:12;;;;;;;9.38;6.10;;;;;;;;;;6154185;23;20033;-78
2022/11/27 08:01:38;;;;;;;11.38;6.38;;;;;;;;;;6154162;23;20014;-74
2022/11/27 08:04:04;;;;;;;11.90;6.13;;;;;;;;;;6155186;23;20005;-77
2022/11/27 08:06:30;;;;;;;11.18;5.43;;;;;;;;;;6153960;23;20346;-77
2022/11/27 08:08:57;;;;;;;8.88;5.68;;;;;;;;;;6127501;23;20047;-77
2022/11/27 08:11:28;;;;;;;9.77;5.47;;;;;;;;;;6153902;23;20001;-76
2022/11/27 08:14:02;;;;;;;7.63;5.45;;;;;;;;;;6162865;23;20052;-76
2022/11/27 08:16:28;;;;;;;11.65;5.32;;;;;;;;;;6160127;23;20084;-77
2022/11/27 08:18:54;;;;;;;10.68;5.68;;;;;;;;;;6151764;23;20332;-75
2022/11/27 08:21:20;;;;;;;10.23;5.97;;;;;;;;;;6153814;23;20001;-76
2022/11/27 08:23:46;;;;;;;8.88;5.32;;;;;;;;;;6154102;23;20125;-76
2022/11/27 08:26:13;;;;;;;10.45;5.47;;;;;;;;;;6153965;23;20021;-76
2022/11/27 08:28:39;;;;;;;9.68;4.88;;;;;;;;;;6125471;23;20010;-76
2022/11/27 08:31:06;;;;;;;8.95;5.22;;;;;;;;;;6152390;23;20076;-76
2022/11/27 08:33:32;;;;;;;7.95;4.85;;;;;;;;;;6153460;23;20002;-77
2022/11/27 08:35:58;;;;;;;9.57;5.28;;;;;;;;;;6156144;23;20005;-73
2022/11/27 08:38:25;;;;;;;6.72;4.95;;;;;;;;;;6156811;23;20441;-73
2022/11/27 08:40:55;;;;;;;8.50;4.40;;;;;;;;;;6156897;23;20012;-76
2022/11/27 08:43:21;;;;;;;6.57;4.28;;;;;;;;;;6128587;23;20009;-76
2022/11/27 08:45:47;;;;;;;9.55;5.13;;;;;;;;;;6153670;23;20031;-77
2022/11/27 08:48:13;;;;;;;6.63;4.20;;;;;;;;;;6153096;23;20068;-72
2022/11/27 08:50:39;;;;;;;7.65;4.60;;;;;;;;;;6155211;23;20009;-76
2022/11/27 08:53:05;;;;;;;12.18;4.95;;;;;;;;;;6128218;23;20069;-76
2022/11/27 08:55:31;;;;;;;9.65;4.95;;;;;;;;;;6155532;23;20009;-76
2022/11/27 08:57:57;;;;;;;10.25;4.82;;;;;;;;;;6155856;23;20014;-76
2022/11/27 09:00:23;;;;;;;8.48;4.90;;;;;;;;;;6155831;23;20002;-76
2022/11/27 09:02:49;;;;;;;8.63;4.70;;;;;;;;;;6154213;23;20006;-77
2022/11/27 09:05:15;;;;;;;14.88;7.68;;;;;;;;;;6154504;23;20355;-76
2022/11/27 09:07:41;;;;;;;14.27;7.35;;;;;;;;;;6129500;23;20009;-76
2022/11/27 09:10:07;;;;;;;11.57;6.82;;;;;;;;;;6155187;23;20012;-78
2022/11/27 09:12:33;;;;;;;11.77;7.75;;;;;;;;;;6155263;23;20438;-76
2022/11/27 09:14:59;;;;;;;16.98;7.47;;;;;;;;;;6155474;23;19998;-77
2022/11/27 09:17:26;;;;;;;12.00;7.32;;;;;;;;;;6155009;23;20092;-76
2022/11/27 09:19:52;;;;;;;12.70;7.15;;;;;;;;;;6155360;23;20334;-76
2022/11/27 09:22:18;;;;;;;18.05;10.00;;;;;;;;;;6155915;23;20036;-76
2022/11/27 09:24:44;;;;;;;21.98;10.43;;;;;;;;;;6155967;23;20009;-78
2022/11/27 09:27:10;;;;;;;12.73;8.40;;;;;;;;;;6155748;23;20067;-74
2022/11/27 09:29:36;;;;;;;22.67;11.18;;;;;;;;;;6156406;23;20041;-77
2022/11/27 09:32:02;;;;;;;21.63;11.85;;;;;;;;;;6155958;23;20048;-77
2022/11/27 09:34:28;;;;;;;23.42;11.40;;;;;;;;;;6155722;23;20410;-76
2022/11/27 09:36:54;;;;;;;15.32;9.68;;;;;;;;;;6130004;23;20006;-76
2022/11/27 09:39:21;;;;;;;16.95;9.10;;;;;;;;;;6155670;23;20029;-75
2022/11/27 09:41:58;;;;;;;19.67;10.55;;;;;;;;;;6155581;23;20422;-76
2022/11/27 09:44:24;;;;;;;19.33;9.43;;;;;;;;;;6155511;23;20005;-78
2022/11/27 09:46:51;;;;;;;21.75;9.55;;;;;;;;;;6129567;23;20010;-77
2022/11/27 09:49:22;;;;;;;14.63;9.38;;;;;;;;;;6155074;23;20029;-77
2022/11/27 09:51:57;;;;;;;11.48;6.55;;;;;;;;;;6155694;23;20275;-76
2022/11/27 09:54:38;;;;;;;19.13;10.20;;;;;;;;;;6155260;23;20389;-77
2022/11/27 09:57:04;;;;;;;16.63;8.93;;;;;;;;;;6154984;23;20434;-76
2022/11/27 09:59:35;;;;;;;17.98;9.82;;;;;;;;;;6154897;23;20005;-76
2022/11/27 10:02:01;;;;;;;16.98;10.73;;;;;;;;;;6155484;23;20001;-77
2022/11/27 10:04:27;;;;;;;19.63;10.85;;;;;;;;;;6155021;23;20021;-76
2022/11/27 10:07:07;;;;;;;20.17;10.40;;;;;;;;;;6154981;23;20083;-78
2022/11/27 10:09:48;;;;;;;18.33;11.73;;;;;;;;;;6154944;23;20069;-76
2022/11/27 10:12:14;;;;;;;28.50;12.25;;;;;;;;;;6155670;23;20005;-77
2022/11/27 10:14:58;;;;;;;18.73;11.15;;;;;;;;;;6129000;23;20005;-76
2022/11/27 10:17:35;;;;;;;19.05;11.60;;;;;;;;;;6154480;23;20338;-74
2022/11/27 10:20:01;;;;;;;22.00;10.82;;;;;;;;;;6128759;23;20009;-77
2022/11/27 10:22:36;;;;;;;20.23;10.82;;;;;;;;;;6154462;23;20334;-75
2022/11/27 10:25:08;;;;;;;17.92;11.25;;;;;;;;;;6154400;23;20001;-72
2022/11/27 10:27:38;;;;;;;21.52;10.63;;;;;;;;;;6151080;23;20001;-76
2022/11/27 10:30:12;;;;;;;17.08;10.48;;;;;;;;;;6151971;23;20145;-78
2022/11/27 10:32:38;;;;;;;20.50;11.63;;;;;;;;;;6154254;23;19998;-76
2022/11/27 10:35:10;;;;;;;22.60;11.82;;;;;;;;;;6128287;23;20461;-75
2022/11/27 10:37:39;;;;;;;22.85;11.82;;;;;;;;;;6126103;23;20097;-79
2022/11/27 10:40:05;;;;;;;20.38;11.07;;;;;;;;;;6128295;23;20056;-76
2022/11/27 10:42:44;;;;;;;22.00;11.77;;;;;;;;;;6128875;23;20377;-76
2022/11/27 10:45:28;;;;;;;19.05;11.80;;;;;;;;;;6128312;23;20096;-73
2022/11/27 10:47:54;;;;;;;26.15;12.30;;;;;;;;;;6155207;23;20036;-76
2022/11/27 10:50:20;;;;;;;22.08;12.52;;;;;;;;;;6154933;23;20245;-77
2022/11/27 10:52:52;;;;;;;20.25;11.93;;;;;;;;;;6155202;23;20025;-77
2022/11/27 10:55:25;;;;;;;20.92;10.98;;;;;;;;;;6154959;23;20335;-78
2022/11/27 10:58:04;;;;;;;17.17;10.25;;;;;;;;;;6155408;23;20008;-76
2022/11/27 11:00:30;;;;;;;24.35;11.25;;;;;;;;;;6155062;23;20324;-74
2022/11/27 11:03:00;;;;;;;18.30;9.85;;;;;;;;;;6154942;23;20012;-76
2022/11/27 11:05:30;;;;;;;21.33;9.95;;;;;;;;;;6155723;23;20017;-77
2022/11/27 11:08:04;;;;;;;19.67;11.35;;;;;;;;;;6155770;23;20445;-78
2022/11/27 11:10:30;;;;;;;20.92;10.18;;;;;;;;;;6156900;23;20010;-76
2022/11/27 11:13:06;;;;;;;22.23;11.05;;;;;;;;;;6155334;23;20071;-77
2022/11/27 11:15:32;;;;;;;24.30;10.43;;;;;;;;;;6154840;23;20347;-77
2022/11/27 11:17:58;;;;;;;17.08;10.90;;;;;;;;;;6128806;23;20089;-74
2022/11/27 11:20:24;;;;;;;16.42;10.82;;;;;;;;;;6128293;23;20024;-74
2022/11/27 11:22:51;;;;;;;17.80;10.27;;;;;;;;;;6155017;23;20028;-77
2022/11/27 11:25:18;;;;;;;20.95;10.05;;;;;;;;;;6154521;23;20136;-75
2022/11/27 11:27:46;;;;;;;17.88;8.85;;;;;;;;;;6154272;23;20013;-76
2022/11/27 11:30:20;;;;;;;17.20;8.52;;;;;;;;;;6154733;23;20038;-74
2022/11/27 11:32:48;;;;;;;16.98;8.50;;;;;;;;;;6154855;23;20013;-76
2022/11/27 11:35:23;;;;;;;12.70;7.53;;;;;;;;;;6154098;23;20001;-76
2022/11/27 11:37:49;;;;;;;12.18;7.65;;;;;;;;;;6154160;23;20001;-76
2022/11/27 11:40:21;;;;;;;15.82;8.40;;;;;;;;;;6155134;23;20013;-76
2022/11/27 11:43:13;;;;;;;14.10;7.95;;;;;;;;;;6154712;23;20381;-75
2022/11/27 11:45:47;;;;;;;15.15;7.25;;;;;;;;;;6151240;23;20001;-75
2022/11/27 11:48:26;;;;;;;15.60;8.00;;;;;;;;;;6154316;23;20346;-75
2022/11/27 11:50:54;;;;;;;13.40;7.00;;;;;;;;;;6154334;23;20009;-77
2022/11/27 11:53:36;;;;;;;16.17;7.93;;;;;;;;;;6154331;23;19998;-75
2022/11/27 11:56:08;;;;;;;13.10;7.28;;;;;;;;;;6152493;23;20001;-75
2022/11/27 11:58:37;;;;;;;12.70;6.53;;;;;;;;;;6152253;23;20370;-78
2022/11/27 12:01:22;;;;;;;13.77;7.40;;;;;;;;;;6152901;23;20355;-75
2022/11/27 12:03:54;;;;;;;15.57;7.10;;;;;;;;;;6152139;23;20006;-76
2022/11/27 12:06:20;;;;;;;12.88;6.32;;;;;;;;;;6152491;23;20359;-77
2022/11/27 12:08:46;;;;;;;16.80;7.65;;;;;;;;;;6152594;23;20001;-79
2022/11/27 12:11:17;;;;;;;12.80;6.63;;;;;;;;;;6156193;23;20004;-78
2022/11/27 12:13:46;;;;;;;13.90;7.03;;;;;;;;;;6156510;23;20378;-74
2022/11/27 12:16:29;;;;;;;12.45;5.90;;;;;;;;;;6156216;23;20002;-77
2022/11/27 12:19:03;;;;;;;11.52;5.18;;;;;;;;;;6155875;23;20013;-74
2022/11/27 12:21:47;;;;;;;12.82;5.93;;;;;;;;;;6156377;23;20056;-77
2022/11/27 12:24:19;;;;;;;8.88;5.57;;;;;;;;;;6156982;23;20051;-77
2022/11/27 12:26:51;;;;;;;9.45;5.88;;;;;;;;;;6156361;23;20338;-78
2022/11/27 12:29:17;;;;;;;11.50;6.53;;;;;;;;;;6164223;23;19996;-80
2022/11/27 12:31:55;;;;;;;10.35;5.97;;;;;;;;;;6183498;23;20009;-81
2022/11/27 12:34:37;;;;;;;13.57;6.78;;;;;;;;;;6157142;23;20005;-71
2022/11/27 12:37:02;;;;;;;;;;;;;;;;;;6179025;23;20051;-81
2022/11/27 12:39:32;;;;;;;9.57;5.88;;;;;;;;;;6158351;23;19905;-76
2022/11/27 12:41:58;;;;;;;11.13;6.30;;;;;;;;;;6158361;23;20084;-76
2022/11/27 12:44:33;;;;;;;11.48;5.47;;;;;;;;;;6171056;23;20026;-76
2022/11/27 12:46:59;;;;;;;11.02;5.18;;;;;;;;;;6174180;23;20055;-76
2022/11/27 12:49:28;;;;;;;16.67;5.38;;;;;;;;;;6170709;23;20002;-75
2022/11/27 12:52:09;;;;;;;12.57;5.65;;;;;;;;;;6169542;23;20004;-76
2022/11/27 12:54:46;;;;;;;11.38;5.97;;;;;;;;;;6166305;23;19998;-76
2022/11/27 12:57:17;;;;;;;11.45;4.90;;;;;;;;;;6154781;23;19998;-75
2022/11/27 12:59:49;;;;;;;10.52;6.20;;;;;;;;;;6155269;23;20025;-75
2022/11/27 13:02:25;;;;;;;10.20;5.97;;;;;;;;;;6155136;23;20001;-75
2022/11/27 13:04:58;;;;;;;10.77;5.70;;;;;;;;;;6155228;23;20013;-76
2022/11/27 13:07:28;;;;;;;11.57;5.60;;;;;;;;;;6129051;23;20005;-76
2022/11/27 13:09:58;;;;;;;10.35;5.55;;;;;;;;;;6155310;23;20008;-74
2022/11/27 13:12:35;;;;;;;10.80;5.70;;;;;;;;;;6155419;23;20378;-76
2022/11/27 13:15:03;;;;;;;9.00;5.68;;;;;;;;;;6155719;23;20005;-75
2022/11/27 13:17:37;;;;;;;12.18;6.25;;;;;;;;;;6129080;23;20347;-76
2022/11/27 13:20:05;;;;;;;14.73;5.78;;;;;;;;;;6155271;23;20347;-78
2022/11/27 13:22:33;;;;;;;9.40;5.45;;;;;;;;;;6155314;23;20016;-76
2022/11/27 13:25:03;;;;;;;8.13;5.15;;;;;;;;;;6155923;23;20097;-79
2022/11/27 13:27:30;;;;;;;9.85;5.28;;;;;;;;;;6155052;23;20434;-76
2022/11/27 13:29:56;;;;;;;8.90;5.60;;;;;;;;;;6155734;23;20399;-75
2022/11/27 13:32:27;;;;;;;10.80;5.30;;;;;;;;;;6155364;23;20030;-76
2022/11/27 13:34:54;;;;;;;10.13;5.22;;;;;;;;;;6155551;23;20013;-77
2022/11/27 13:37:32;;;;;;;13.20;5.68;;;;;;;;;;6156023;23;20434;-78
2022/11/27 13:40:03;;;;;;;13.35;5.38;;;;;;;;;;6155398;23;20084;-77
2022/11/27 13:42:29;;;;;;;11.75;5.80;;;;;;;;;;6156250;23;19997;-77
2022/11/27 13:44:58;;;;;;;11.15;5.15;;;;;;;;;;6154775;23;20032;-77
2022/11/27 13:47:25;;;;;;;11.40;5.43;;;;;;;;;;6153103;23;19997;-78
2022/11/27 13:50:02;;;;;;;13.23;5.68;;;;;;;;;;6152747;23;20107;-75
2022/11/27 13:52:29;;;;;;;13.40;5.93;;;;;;;;;;6153246;23;20426;-75
2022/11/27 13:54:59;;;;;;;11.05;5.07;;;;;;;;;;6153483;23;20029;-78
2022/11/27 13:57:26;;;;;;;9.70;5.47;;;;;;;;;;6126495;23;20005;-77
2022/11/27 13:59:58;;;;;;;13.13;5.35;;;;;;;;;;6153752;23;20006;-76
2022/11/27 14:02:24;;;;;;;8.90;4.65;;;;;;;;;;6155559;23;20001;-77
2022/11/27 14:04:52;;;;;;;12.38;5.82;;;;;;;;;;6156198;23;20071;-76
2022/11/27 14:07:19;;;;;;;17.75;9.52;;;;;;;;;;6154854;23;20009;-76
2022/11/27 14:09:52;;;;;;;16.42;7.78;;;;;;;;;;6155295;23;20002;-77
2022/11/27 14:12:18;;;;;;;11.88;5.97;;;;;;;;;;6155209;23;19997;-77
2022/11/27 14:14:56;;;;;;;11.52;5.03;;;;;;;;;;6155359;23;20488;-79
2022/11/27 14:17:24;;;;;;;12.77;5.63;;;;;;;;;;6129179;23;20075;-76
2022/11/27 14:19:58;;;;;;;11.10;5.05;;;;;;;;;;6154588;23;20032;-77
2022/11/27 14:22:45;;;;;;;10.85;5.70;;;;;;;;;;6155024;23;20009;-77
2022/11/27 14:25:43;;;;;;;9.93;5.18;;;;;;;;;;6154761;23;20002;-77
2022/11/27 14:28:09;;;;;;;14.63;5.75;;;;;;;;;;6121343;23;20006;-76
2022/11/27 14:30:40;;;;;;;10.73;5.20;;;;;;;;;;6154513;23;20009;-77
2022/11/27 14:33:15;;;;;;;9.65;5.90;;;;;;;;;;6155109;23;20036;-76
2022/11/27 14:35:41;;;;;;;9.55;5.38;;;;;;;;;;6155857;23;20009;-76
2022/11/27 14:38:10;;;;;;;12.40;5.05;;;;;;;;;;6154560;23;20076;-77